KELP/ELP METAR and TAF weather

Enter ICAO airport designator
Station Type Date Time Source
KELP METAR 2020/03/28 20:51 UTC NOAA

KELP 282051Z VRB03G17KT 10SM CLR 16/M11 A3007 RMK AO2 SLP150 T01561106 56016


Station Type Date Time Source
KELP Decoded METAR 2020/03/28 20:51 UTC NOAA

EL PASO INTERNATIONAL AIRPORT , TX, United States (KELP) 31-49N 106-23W 1197M
Mar 28, 2020 - 04:51 PM EDT / 2020.03.28 2051 UTC
Wind: Variable at 3 MPH (3 KT) gusting to 20 MPH (17 KT):0
Visibility: 10 mile(s):0
Sky conditions: clear
Temperature: 60.1 F (15.6 C)
Dew Point: 12.9 F (-10.6 C)
Relative Humidity: 15%
Pressure (altimeter): 30.07 in. Hg (1018 hPa)
Pressure tendency: 0.05 inches (1.6 hPa) lower than three hours ago
ob: KELP 282051Z VRB03G17KT 10SM CLR 16/M11 A3007 RMK AO2 SLP150 T01561106 56016
cycle: 21

Station Type Date Time Source
KELP TAF 2020/03/28 18:24 UTC NOAA

TAF KELP 281722Z 2818/2918 28010KT P6SM SKC
FM290400 VRB05KT P6SM SCT250
FM291200 10005KT P6SM SCT250

Example: see airport list